sensor_id;sensor_type;location;lat;lon;timestamp;pressure;altitude;pressure_sealevel;temperature;humidity
37852;BME280;23691;52.486;4.650;2023-08-30T00:00:50;100808.22;;;19.03;55.88
37852;BME280;23691;52.486;4.650;2023-08-30T00:03:17;100802.19;;;19.01;56.00
37852;BME280;23691;52.486;4.650;2023-08-30T00:05:43;100809.25;;;19.02;56.09
37852;BME280;23691;52.486;4.650;2023-08-30T00:08:11;100803.84;;;19.02;56.11
37852;BME280;23691;52.486;4.650;2023-08-30T00:10:38;100801.38;;;19.00;56.15
37852;BME280;23691;52.486;4.650;2023-08-30T00:13:14;100802.81;;;19.03;56.27
37852;BME280;23691;52.486;4.650;2023-08-30T00:15:45;100802.81;;;19.03;56.34
37852;BME280;23691;52.486;4.650;2023-08-30T00:18:13;100789.47;;;19.01;56.69
37852;BME280;23691;52.486;4.650;2023-08-30T00:20:42;100781.94;;;19.03;56.11
37852;BME280;23691;52.486;4.650;2023-08-30T00:23:07;100783.44;;;18.99;56.29
37852;BME280;23691;52.486;4.650;2023-08-30T00:25:32;100779.06;;;18.98;56.56
37852;BME280;23691;52.486;4.650;2023-08-30T00:27:58;100779.44;;;19.02;56.48
37852;BME280;23691;52.486;4.650;2023-08-30T00:30:23;100779.44;;;19.02;56.61
37852;BME280;23691;52.486;4.650;2023-08-30T00:32:49;100773.56;;;19.05;56.58
37852;BME280;23691;52.486;4.650;2023-08-30T00:35:15;100768.59;;;19.02;56.75
37852;BME280;23691;52.486;4.650;2023-08-30T00:37:40;100772.38;;;19.01;56.86
37852;BME280;23691;52.486;4.650;2023-08-30T00:40:06;100769.22;;;19.04;56.57
37852;BME280;23691;52.486;4.650;2023-08-30T00:42:32;100763.41;;;19.00;56.89
37852;BME280;23691;52.486;4.650;2023-08-30T00:44:57;100761.06;;;19.04;56.65
37852;BME280;23691;52.486;4.650;2023-08-30T00:47:25;100760.00;;;19.05;56.95
37852;BME280;23691;52.486;4.650;2023-08-30T00:49:51;100758.34;;;19.04;56.88
37852;BME280;23691;52.486;4.650;2023-08-30T00:52:16;100760.63;;;19.07;56.73
37852;BME280;23691;52.486;4.650;2023-08-30T00:54:42;100752.28;;;19.08;56.79
37852;BME280;23691;52.486;4.650;2023-08-30T00:57:09;100742.88;;;19.11;56.87
37852;BME280;23691;52.486;4.650;2023-08-30T00:59:34;100748.28;;;19.11;56.87
37852;BME280;23691;52.486;4.650;2023-08-30T01:02:01;100746.41;;;19.12;57.06
37852;BME280;23691;52.486;4.650;2023-08-30T01:04:27;100735.56;;;19.12;56.85
37852;BME280;23691;52.486;4.650;2023-08-30T01:06:53;100732.63;;;19.13;56.76
37852;BME280;23691;52.486;4.650;2023-08-30T01:09:19;100728.03;;;19.14;57.21
37852;BME280;23691;52.486;4.650;2023-08-30T01:11:57;100738.06;;;19.13;56.91
37852;BME280;23691;52.486;4.650;2023-08-30T01:14:30;100727.41;;;19.12;57.33
37852;BME280;23691;52.486;4.650;2023-08-30T01:16:56;100733.66;;;19.12;57.14
37852;BME280;23691;52.486;4.650;2023-08-30T01:25:15;100720.50;;;19.16;57.44
37852;BME280;23691;52.486;4.650;2023-08-30T01:27:43;100720.97;;;19.13;57.42
37852;BME280;23691;52.486;4.650;2023-08-30T01:30:11;100722.38;;;19.15;57.59
37852;BME280;23691;52.486;4.650;2023-08-30T01:32:38;100710.69;;;19.15;57.57
37852;BME280;23691;52.486;4.650;2023-08-30T01:35:05;100714.00;;;19.17;57.44
37852;BME280;23691;52.486;4.650;2023-08-30T01:37:32;100708.59;;;19.17;57.45
37852;BME280;23691;52.486;4.650;2023-08-30T01:39:59;100710.88;;;19.20;57.57
37852;BME280;23691;52.486;4.650;2023-08-30T01:42:26;100709.19;;;19.19;57.74
37852;BME280;23691;52.486;4.650;2023-08-30T01:44:53;100711.69;;;19.20;57.48
37852;BME280;23691;52.486;4.650;2023-08-30T01:47:25;100709.81;;;19.21;57.85
37852;BME280;23691;52.486;4.650;2023-08-30T01:49:55;100708.75;;;19.22;58.00
37852;BME280;23691;52.486;4.650;2023-08-30T01:52:24;100701.66;;;19.21;57.80
37852;BME280;23691;52.486;4.650;2023-08-30T01:54:51;100697.91;;;19.22;57.73
37852;BME280;23691;52.486;4.650;2023-08-30T01:57:18;100701.66;;;19.21;58.28
37852;BME280;23691;52.486;4.650;2023-08-30T01:59:44;100692.09;;;19.18;58.38
37852;BME280;23691;52.486;4.650;2023-08-30T02:02:09;100697.31;;;19.20;58.24
37852;BME280;23691;52.486;4.650;2023-08-30T02:04:35;100698.56;;;19.17;58.47
37852;BME280;23691;52.486;4.650;2023-08-30T02:07:25;100698.56;;;19.17;58.55
37852;BME280;23691;52.486;4.650;2023-08-30T02:09:58;100693.59;;;19.14;58.52
37852;BME280;23691;52.486;4.650;2023-08-30T02:12:31;100689.41;;;19.18;58.42
37852;BME280;23691;52.486;4.650;2023-08-30T02:15:01;100685.00;;;19.17;58.52
37852;BME280;23691;52.486;4.650;2023-08-30T02:17:27;100689.19;;;19.20;58.39
37852;BME280;23691;52.486;4.650;2023-08-30T02:19:55;100686.69;;;19.18;58.68
37852;BME280;23691;52.486;4.650;2023-08-30T02:22:21;100682.06;;;19.19;58.72
37852;BME280;23691;52.486;4.650;2023-08-30T02:24:46;100679.00;;;19.15;58.73
37852;BME280;23691;52.486;4.650;2023-08-30T02:27:12;100669.81;;;19.16;58.78
37852;BME280;23691;52.486;4.650;2023-08-30T02:29:37;100674.75;;;19.19;58.64
37852;BME280;23691;52.486;4.650;2023-08-30T02:32:03;100670.19;;;19.20;58.68
37852;BME280;23691;52.486;4.650;2023-08-30T02:34:29;100665.59;;;19.20;58.74
37852;BME280;23691;52.486;4.650;2023-08-30T02:36:54;100665.34;;;19.22;58.95
37852;BME280;23691;52.486;4.650;2023-08-30T02:39:20;100661.81;;;19.21;58.81
37852;BME280;23691;52.486;4.650;2023-08-30T02:41:45;100667.84;;;19.23;59.04
37852;BME280;23691;52.486;4.650;2023-08-30T02:44:11;100657.81;;;19.24;58.97
37852;BME280;23691;52.486;4.650;2023-08-30T02:46:37;100660.31;;;19.25;59.09
37852;BME280;23691;52.486;4.650;2023-08-30T02:49:07;100653.22;;;19.24;59.20
37852;BME280;23691;52.486;4.650;2023-08-30T02:51:32;100647.22;;;19.22;59.54
37852;BME280;23691;52.486;4.650;2023-08-30T02:53:58;100654.28;;;19.23;59.06
37852;BME280;23691;52.486;4.650;2023-08-30T02:56:23;100642.38;;;19.24;59.55
37852;BME280;23691;52.486;4.650;2023-08-30T02:58:50;100643.81;;;19.27;59.42
37852;BME280;23691;52.486;4.650;2023-08-30T03:01:18;100641.69;;;19.29;59.42
37852;BME280;23691;52.486;4.650;2023-08-30T03:03:45;100636.81;;;19.19;59.42
37852;BME280;23691;52.486;4.650;2023-08-30T03:06:10;100633.25;;;19.19;59.40
37852;BME280;23691;52.486;4.650;2023-08-30T03:08:36;100618.44;;;19.21;59.38
37852;BME280;23691;52.486;4.650;2023-08-30T03:11:13;100617.38;;;19.22;59.43
37852;BME280;23691;52.486;4.650;2023-08-30T03:13:39;100625.94;;;19.19;59.62
37852;BME280;23691;52.486;4.650;2023-08-30T03:16:12;100622.22;;;19.20;59.53
37852;BME280;23691;52.486;4.650;2023-08-30T03:18:38;100623.50;;;19.18;59.73
37852;BME280;23691;52.486;4.650;2023-08-30T03:21:09;100619.34;;;19.15;59.87
37852;BME280;23691;52.486;4.650;2023-08-30T03:23:38;100607.91;;;19.13;59.73
37852;BME280;23691;52.486;4.650;2023-08-30T03:26:12;100612.84;;;19.16;59.74
37852;BME280;23691;52.486;4.650;2023-08-30T03:28:38;100605.31;;;19.18;59.73
37852;BME280;23691;52.486;4.650;2023-08-30T03:31:17;100609.31;;;19.16;59.58
37852;BME280;23691;52.486;4.650;2023-08-30T03:33:43;100613.31;;;19.13;59.46
37852;BME280;23691;52.486;4.650;2023-08-30T03:36:13;100604.72;;;19.16;59.62
37852;BME280;23691;52.486;4.650;2023-08-30T03:38:45;100602.84;;;19.17;59.37
37852;BME280;23691;52.486;4.650;2023-08-30T03:41:11;100603.22;;;19.20;59.74
37852;BME280;23691;52.486;4.650;2023-08-30T03:43:37;100596.22;;;19.13;59.89
37852;BME280;23691;52.486;4.650;2023-08-30T03:46:03;100591.84;;;19.12;60.09
37852;BME280;23691;52.486;4.650;2023-08-30T03:48:29;100591.22;;;19.09;59.80
37852;BME280;23691;52.486;4.650;2023-08-30T03:50:58;100584.78;;;19.11;59.76
37852;BME280;23691;52.486;4.650;2023-08-30T03:53:24;100584.16;;;19.08;59.63
37852;BME280;23691;52.486;4.650;2023-08-30T03:55:50;100584.16;;;19.08;59.96
37852;BME280;23691;52.486;4.650;2023-08-30T03:58:17;100582.53;;;19.07;60.08
37852;BME280;23691;52.486;4.650;2023-08-30T04:00:43;100586.50;;;19.05;60.04
37852;BME280;23691;52.486;4.650;2023-08-30T04:03:09;100576.72;;;19.04;60.25
37852;BME280;23691;52.486;4.650;2023-08-30T04:05:38;100578.00;;;19.01;60.07
37852;BME280;23691;52.486;4.650;2023-08-30T04:08:05;100572.56;;;19.01;60.46
37852;BME280;23691;52.486;4.650;2023-08-30T04:10:37;100582.59;;;19.01;60.33
37852;BME280;23691;52.486;4.650;2023-08-30T04:13:04;100580.91;;;19.00;60.07
37852;BME280;23691;52.486;4.650;2023-08-30T04:15:36;100569.25;;;18.99;60.08
37852;BME280;23691;52.486;4.650;2023-08-30T04:18:03;100579.50;;;18.97;60.39
37852;BME280;23691;52.486;4.650;2023-08-30T04:20:29;100574.06;;;18.97;60.52
37852;BME280;23691;52.486;4.650;2023-08-30T04:22:54;100576.78;;;18.97;60.50
37852;BME280;23691;52.486;4.650;2023-08-30T04:25:22;100566.19;;;18.96;60.41
37852;BME280;23691;52.486;4.650;2023-08-30T04:27:48;100564.06;;;18.98;60.35
37852;BME280;23691;52.486;4.650;2023-08-30T04:30:13;100557.81;;;18.97;60.50
37852;BME280;23691;52.486;4.650;2023-08-30T04:32:39;100567.59;;;18.98;60.33
37852;BME280;23691;52.486;4.650;2023-08-30T04:35:05;100547.81;;;18.98;60.82
37852;BME280;23691;52.486;4.650;2023-08-30T04:37:31;100537.19;;;18.96;60.58
37852;BME280;23691;52.486;4.650;2023-08-30T04:39:57;100539.91;;;18.96;60.59
37852;BME280;23691;52.486;4.650;2023-08-30T04:42:22;100527.63;;;18.94;60.58
37852;BME280;23691;52.486;4.650;2023-08-30T04:44:48;100538.47;;;18.94;60.38
37852;BME280;23691;52.486;4.650;2023-08-30T04:47:14;100541.63;;;18.91;60.41
37852;BME280;23691;52.486;4.650;2023-08-30T04:49:39;100539.34;;;18.87;60.33
37852;BME280;23691;52.486;4.650;2023-08-30T04:52:05;100544.63;;;18.82;60.32
37852;BME280;23691;52.486;4.650;2023-08-30T04:54:31;100544.88;;;18.81;60.63
37852;BME280;23691;52.486;4.650;2023-08-30T04:56:56;100557.22;;;18.77;60.49
37852;BME280;23691;52.486;4.650;2023-08-30T04:59:22;100551.16;;;18.75;60.94
37852;BME280;23691;52.486;4.650;2023-08-30T05:01:47;100555.56;;;18.76;60.42
37852;BME280;23691;52.486;4.650;2023-08-30T05:04:13;100554.69;;;18.75;60.60
37852;BME280;23691;52.486;4.650;2023-08-30T05:06:39;100538.66;;;18.74;60.75
37852;BME280;23691;52.486;4.650;2023-08-30T05:09:04;100540.31;;;18.75;60.56
37852;BME280;23691;52.486;4.650;2023-08-30T05:11:31;100534.06;;;18.74;60.54
37852;BME280;23691;52.486;4.650;2023-08-30T05:13:56;100533.25;;;18.74;60.84
37852;BME280;23691;52.486;4.650;2023-08-30T05:16:22;100534.72;;;18.76;60.85
37852;BME280;23691;52.486;4.650;2023-08-30T05:18:48;100531.53;;;18.79;60.40
37852;BME280;23691;52.486;4.650;2023-08-30T05:21:14;100535.94;;;18.80;60.29
37852;BME280;23691;52.486;4.650;2023-08-30T05:23:41;100535.69;;;18.82;59.85
37852;BME280;23691;52.486;4.650;2023-08-30T05:26:10;100528.63;;;18.81;59.81
37852;BME280;23691;52.486;4.650;2023-08-30T05:28:38;100524.63;;;18.83;59.71
37852;BME280;23691;52.486;4.650;2023-08-30T05:31:04;100520.84;;;18.84;59.62
37852;BME280;23691;52.486;4.650;2023-08-30T05:33:32;100526.28;;;18.84;59.40
37852;BME280;23691;52.486;4.650;2023-08-30T05:35:57;100524.03;;;18.81;59.57
37852;BME280;23691;52.486;4.650;2023-08-30T05:38:23;100516.50;;;18.83;59.50
37852;BME280;23691;52.486;4.650;2023-08-30T05:40:49;100531.94;;;18.83;59.24
37852;BME280;23691;52.486;4.650;2023-08-30T05:43:17;100535.69;;;18.82;59.48
37852;BME280;23691;52.486;4.650;2023-08-30T05:45:43;100535.31;;;18.78;59.74
37852;BME280;23691;52.486;4.650;2023-08-30T05:48:11;100527.00;;;18.73;59.89
37852;BME280;23691;52.486;4.650;2023-08-30T05:50:37;100529.56;;;18.68;60.31
37852;BME280;23691;52.486;4.650;2023-08-30T05:53:03;100514.13;;;18.69;60.07
37852;BME280;23691;52.486;4.650;2023-08-30T05:55:29;100511.84;;;18.65;60.61
37852;BME280;23691;52.486;4.650;2023-08-30T05:57:57;100516.44;;;18.65;60.56
37852;BME280;23691;52.486;4.650;2023-08-30T06:00:31;100522.94;;;18.64;60.71
37852;BME280;23691;52.486;4.650;2023-08-30T06:02:57;100523.16;;;18.62;60.64
37852;BME280;23691;52.486;4.650;2023-08-30T06:05:22;100534.66;;;18.58;60.62
37852;BME280;23691;52.486;4.650;2023-08-30T06:07:48;100538.44;;;18.57;60.83
37852;BME280;23691;52.486;4.650;2023-08-30T06:10:14;100539.50;;;18.56;60.74
37852;BME280;23691;52.486;4.650;2023-08-30T06:12:42;100533.47;;;18.54;61.01
37852;BME280;23691;52.486;4.650;2023-08-30T06:15:08;100531.19;;;18.51;61.11
37852;BME280;23691;52.486;4.650;2023-08-30T06:17:36;100535.78;;;18.50;61.21
37852;BME280;23691;52.486;4.650;2023-08-30T06:20:05;100528.94;;;18.48;61.59
37852;BME280;23691;52.486;4.650;2023-08-30T06:22:37;100528.13;;;18.47;61.42
37852;BME280;23691;52.486;4.650;2023-08-30T06:25:10;100512.75;;;18.41;61.93
37852;BME280;23691;52.486;4.650;2023-08-30T06:27:42;100503.13;;;18.45;61.77
37852;BME280;23691;52.486;4.650;2023-08-30T06:30:10;100496.59;;;18.53;61.87
37852;BME280;23691;52.486;4.650;2023-08-30T06:32:36;100491.56;;;18.56;61.99
37852;BME280;23691;52.486;4.650;2023-08-30T06:35:11;100493.59;;;18.61;62.14
37852;BME280;23691;52.486;4.650;2023-08-30T06:37:37;100492.75;;;18.60;62.62
37852;BME280;23691;52.486;4.650;2023-08-30T06:40:04;100500.03;;;18.60;62.71
37852;BME280;23691;52.486;4.650;2023-08-30T06:42:30;100504.19;;;18.62;62.84
37852;BME280;23691;52.486;4.650;2023-08-30T06:44:59;100514.34;;;18.67;62.62
37852;BME280;23691;52.486;4.650;2023-08-30T06:47:30;100511.19;;;18.70;62.83
37852;BME280;23691;52.486;4.650;2023-08-30T06:49:55;100512.84;;;18.71;62.70
37852;BME280;23691;52.486;4.650;2023-08-30T06:52:28;100521.16;;;18.76;62.92
37852;BME280;23691;52.486;4.650;2023-08-30T06:55:00;100507.78;;;18.75;63.00
37852;BME280;23691;52.486;4.650;2023-08-30T06:57:26;100517.81;;;18.74;62.96
37852;BME280;23691;52.486;4.650;2023-08-30T06:59:58;100506.78;;;18.76;62.79
37852;BME280;23691;52.486;4.650;2023-08-30T07:02:36;100494.66;;;18.78;63.22
37852;BME280;23691;52.486;4.650;2023-08-30T07:05:02;100497.53;;;18.83;62.99
37852;BME280;23691;52.486;4.650;2023-08-30T07:07:30;100488.03;;;18.93;63.01
37852;BME280;23691;52.486;4.650;2023-08-30T07:09:56;100486.03;;;19.00;63.01
37852;BME280;23691;52.486;4.650;2023-08-30T07:12:22;100489.34;;;19.02;62.86
37852;BME280;23691;52.486;4.650;2023-08-30T07:14:49;100483.09;;;19.01;63.29
37852;BME280;23691;52.486;4.650;2023-08-30T07:17:15;100477.22;;;19.04;62.99
37852;BME280;23691;52.486;4.650;2023-08-30T07:19:40;100474.28;;;19.06;62.96
37852;BME280;23691;52.486;4.650;2023-08-30T07:22:06;100469.47;;;19.08;63.26
37852;BME280;23691;52.486;4.650;2023-08-30T07:24:34;100477.13;;;19.11;63.12
37852;BME280;23691;52.486;4.650;2023-08-30T07:27:05;100463.25;;;19.19;62.98
37852;BME280;23691;52.486;4.650;2023-08-30T07:29:35;100473.78;;;19.27;62.93
37852;BME280;23691;52.486;4.650;2023-08-30T07:32:01;100470.03;;;19.40;63.07
37852;BME280;23691;52.486;4.650;2023-08-30T07:34:30;100472.31;;;19.55;62.73
37852;BME280;23691;52.486;4.650;2023-08-30T07:36:56;100468.09;;;19.59;62.40
37852;BME280;23691;52.486;4.650;2023-08-30T07:39:24;100467.38;;;19.52;62.73
37852;BME280;23691;52.486;4.650;2023-08-30T07:41:55;100457.22;;;19.47;62.85
37852;BME280;23691;52.486;4.650;2023-08-30T07:44:23;100456.84;;;19.44;62.91
37852;BME280;23691;52.486;4.650;2023-08-30T07:46:51;100463.31;;;19.43;63.10
37852;BME280;23691;52.486;4.650;2023-08-30T07:49:22;100455.66;;;19.40;63.04
37852;BME280;23691;52.486;4.650;2023-08-30T07:51:48;100455.41;;;19.41;63.51
37852;BME280;23691;52.486;4.650;2023-08-30T07:54:14;100452.00;;;19.46;63.13
37852;BME280;23691;52.486;4.650;2023-08-30T07:56:45;100453.44;;;19.48;63.32
37852;BME280;23691;52.486;4.650;2023-08-30T07:59:13;100463.47;;;19.48;62.99
37852;BME280;23691;52.486;4.650;2023-08-30T08:01:45;100460.16;;;19.46;63.04
37852;BME280;23691;52.486;4.650;2023-08-30T08:04:21;100449.53;;;19.44;63.35
37852;BME280;23691;52.486;4.650;2023-08-30T08:06:52;100454.81;;;19.39;63.42
37852;BME280;23691;52.486;4.650;2023-08-30T08:12:59;100457.03;;;19.30;63.68
37852;BME280;23691;52.486;4.650;2023-08-30T08:15:52;100466.00;;;19.31;63.73
37852;BME280;23691;52.486;4.650;2023-08-30T08:18:54;100460.91;;;19.23;63.82
37852;BME280;23691;52.486;4.650;2023-08-30T08:21:58;100461.22;;;19.15;64.15
37852;BME280;23691;52.486;4.650;2023-08-30T08:24:34;100459.38;;;19.15;64.24
37852;BME280;23691;52.486;4.650;2023-08-30T08:30:49;100460.53;;;19.19;64.19
37852;BME280;23691;52.486;4.650;2023-08-30T08:33:44;100468.06;;;19.17;64.53
37852;BME280;23691;52.486;4.650;2023-08-30T08:40:03;100477.59;;;19.08;64.81
37852;BME280;23691;52.486;4.650;2023-08-30T08:42:39;100465.59;;;19.16;64.52
37852;BME280;23691;52.486;4.650;2023-08-30T08:45:07;100457.25;;;19.29;64.66
37852;BME280;23691;52.486;4.650;2023-08-30T08:47:45;100458.25;;;19.46;64.16
37852;BME280;23691;52.486;4.650;2023-08-30T08:50:12;100464.59;;;19.70;63.76
37852;BME280;23691;52.486;4.650;2023-08-30T08:52:41;100456.69;;;19.92;63.03
37852;BME280;23691;52.486;4.650;2023-08-30T08:55:08;100469.09;;;20.12;62.70
37852;BME280;23691;52.486;4.650;2023-08-30T08:57:38;100474.88;;;20.27;62.37
37852;BME280;23691;52.486;4.650;2023-08-30T09:00:06;100465.41;;;20.42;61.86
37852;BME280;23691;52.486;4.650;2023-08-30T09:02:42;100465.28;;;20.48;61.90
37852;BME280;23691;52.486;4.650;2023-08-30T09:05:11;100458.34;;;20.41;62.33
37852;BME280;23691;52.486;4.650;2023-08-30T09:07:39;100459.75;;;20.43;62.33
37852;BME280;23691;52.486;4.650;2023-08-30T09:10:08;100457.88;;;20.55;62.21
37852;BME280;23691;52.486;4.650;2023-08-30T09:12:35;100457.94;;;20.72;61.84
37852;BME280;23691;52.486;4.650;2023-08-30T09:15:16;100454.94;;;20.86;61.94
37852;BME280;23691;52.486;4.650;2023-08-30T09:17:46;100457.13;;;21.00;61.46
37852;BME280;23691;52.486;4.650;2023-08-30T09:20:15;100458.53;;;21.03;61.13
37852;BME280;23691;52.486;4.650;2023-08-30T09:22:42;100461.97;;;20.98;61.07
37852;BME280;23691;52.486;4.650;2023-08-30T09:25:11;100458.56;;;20.91;61.37
37852;BME280;23691;52.486;4.650;2023-08-30T09:27:48;100454.34;;;20.84;61.19
37852;BME280;23691;52.486;4.650;2023-08-30T09:30:26;100451.84;;;20.82;60.88
37852;BME280;23691;52.486;4.650;2023-08-30T09:32:54;100456.75;;;20.68;60.95
37852;BME280;23691;52.486;4.650;2023-08-30T09:35:28;100464.44;;;20.59;61.13
37852;BME280;23691;52.486;4.650;2023-08-30T09:37:54;100456.28;;;20.71;60.70
37852;BME280;23691;52.486;4.650;2023-08-30T09:40:20;100459.16;;;20.93;60.61
37852;BME280;23691;52.486;4.650;2023-08-30T09:42:48;100461.78;;;21.17;59.98
37852;BME280;23691;52.486;4.650;2023-08-30T09:45:25;100450.88;;;21.46;60.03
37852;BME280;23691;52.486;4.650;2023-08-30T09:47:51;100448.69;;;21.31;60.25
37852;BME280;23691;52.486;4.650;2023-08-30T09:50:19;100440.94;;;21.22;60.13
37852;BME280;23691;52.486;4.650;2023-08-30T09:52:50;100448.75;;;21.19;59.73
37852;BME280;23691;52.486;4.650;2023-08-30T09:55:18;100452.78;;;21.16;59.57
37852;BME280;23691;52.486;4.650;2023-08-30T09:57:44;100446.38;;;21.22;59.13
37852;BME280;23691;52.486;4.650;2023-08-30T10:00:29;100444.31;;;21.30;58.38
37852;BME280;23691;52.486;4.650;2023-08-30T10:02:58;100451.31;;;21.26;57.91
37852;BME280;23691;52.486;4.650;2023-08-30T10:05:23;100447.28;;;21.28;57.57
37852;BME280;23691;52.486;4.650;2023-08-30T10:07:51;100450.19;;;21.38;56.82
37852;BME280;23691;52.486;4.650;2023-08-30T10:10:24;100458.06;;;21.52;55.89
37852;BME280;23691;52.486;4.650;2023-08-30T10:12:51;100450.97;;;21.68;54.94
37852;BME280;23691;52.486;4.650;2023-08-30T10:15:20;100458.47;;;21.77;54.66
37852;BME280;23691;52.486;4.650;2023-08-30T10:17:48;100447.50;;;21.89;53.84
37852;BME280;23691;52.486;4.650;2023-08-30T10:20:19;100454.94;;;21.94;53.65
37852;BME280;23691;52.486;4.650;2023-08-30T10:22:46;100457.28;;;22.07;54.02
37852;BME280;23691;52.486;4.650;2023-08-30T10:25:26;100462.88;;;22.17;53.84
37852;BME280;23691;52.486;4.650;2023-08-30T10:27:56;100461.50;;;22.15;53.12
37852;BME280;23691;52.486;4.650;2023-08-30T10:30:25;100466.28;;;22.24;52.99
37852;BME280;23691;52.486;4.650;2023-08-30T10:32:51;100467.97;;;22.25;52.80
37852;BME280;23691;52.486;4.650;2023-08-30T10:35:18;100457.13;;;22.31;52.09
37852;BME280;23691;52.486;4.650;2023-08-30T10:37:58;100467.22;;;22.13;51.63
37852;BME280;23691;52.486;4.650;2023-08-30T10:40:24;100477.94;;;22.20;51.07
37852;BME280;23691;52.486;4.650;2023-08-30T10:43:03;100477.78;;;22.26;50.21
37852;BME280;23691;52.486;4.650;2023-08-30T10:45:29;100470.56;;;22.37;50.08
37852;BME280;23691;52.486;4.650;2023-08-30T10:47:57;100470.88;;;22.41;49.78
37852;BME280;23691;52.486;4.650;2023-08-30T10:50:35;100485.09;;;22.43;49.66
37852;BME280;23691;52.486;4.650;2023-08-30T10:53:00;100467.53;;;22.34;49.92
37852;BME280;23691;52.486;4.650;2023-08-30T10:55:26;100476.44;;;22.29;50.21
37852;BME280;23691;52.486;4.650;2023-08-30T10:58:00;100477.78;;;22.26;50.11
37852;BME280;23691;52.486;4.650;2023-08-30T11:00:49;100471.56;;;22.14;50.15
37852;BME280;23691;52.486;4.650;2023-08-30T11:03:14;100486.34;;;22.18;50.41
37852;BME280;23691;52.486;4.650;2023-08-30T11:05:40;100488.66;;;22.26;49.98
37852;BME280;23691;52.486;4.650;2023-08-30T11:08:10;100484.94;;;22.16;50.07
37852;BME280;23691;52.486;4.650;2023-08-30T11:10:36;100491.31;;;22.04;49.68
37852;BME280;23691;52.486;4.650;2023-08-30T11:13:01;100486.69;;;22.05;49.56
37852;BME280;23691;52.486;4.650;2023-08-30T11:15:27;100484.44;;;22.19;49.71
37852;BME280;23691;52.486;4.650;2023-08-30T11:18:02;100491.09;;;22.23;49.77
37852;BME280;23691;52.486;4.650;2023-08-30T11:20:28;100496.03;;;22.26;49.63
37852;BME280;23691;52.486;4.650;2023-08-30T11:22:56;100496.34;;;22.29;49.00
37852;BME280;23691;52.486;4.650;2023-08-30T11:25:21;100504.41;;;22.41;48.46
37852;BME280;23691;52.486;4.650;2023-08-30T11:27:47;100494.41;;;22.47;48.04
37852;BME280;23691;52.486;4.650;2023-08-30T11:30:12;100506.28;;;22.58;47.88
37852;BME280;23691;52.486;4.650;2023-08-30T11:32:39;100494.69;;;22.67;47.20
37852;BME280;23691;52.486;4.650;2023-08-30T11:35:06;100506.22;;;22.75;47.25
37852;BME280;23691;52.486;4.650;2023-08-30T11:37:32;100502.81;;;22.84;46.64
37852;BME280;23691;52.486;4.650;2023-08-30T11:39:59;100496.06;;;22.92;46.92
37852;BME280;23691;52.486;4.650;2023-08-30T11:42:25;100502.66;;;22.96;46.41
37852;BME280;23691;52.486;4.650;2023-08-30T11:44:51;100498.13;;;23.02;46.57
37852;BME280;23691;52.486;4.650;2023-08-30T11:47:22;100498.19;;;23.07;46.72
37852;BME280;23691;52.486;4.650;2023-08-30T11:49:57;100495.19;;;23.08;46.37
37852;BME280;23691;52.486;4.650;2023-08-30T11:52:25;100502.31;;;23.09;46.22
37852;BME280;23691;52.486;4.650;2023-08-30T11:54:51;100499.38;;;23.16;45.75
37852;BME280;23691;52.486;4.650;2023-08-30T11:57:17;100503.13;;;23.10;45.88
37852;BME280;23691;52.486;4.650;2023-08-30T11:59:43;100502.41;;;23.20;46.31
37852;BME280;23691;52.486;4.650;2023-08-30T12:02:09;100499.44;;;23.21;46.57
37852;BME280;23691;52.486;4.650;2023-08-30T12:04:46;100512.91;;;23.33;46.20
37852;BME280;23691;52.486;4.650;2023-08-30T12:07:22;100505.75;;;23.54;45.95
37852;BME280;23691;52.486;4.650;2023-08-30T12:10:04;100510.06;;;23.50;46.07
37852;BME280;23691;52.486;4.650;2023-08-30T12:12:29;100509.41;;;23.38;45.88
37852;BME280;23691;52.486;4.650;2023-08-30T12:14:55;100513.03;;;23.43;45.21
37852;BME280;23691;52.486;4.650;2023-08-30T12:17:26;100521.09;;;23.33;45.14
37852;BME280;23691;52.486;4.650;2023-08-30T12:19:58;100525.75;;;23.32;45.75
37852;BME280;23691;52.486;4.650;2023-08-30T12:22:47;100523.63;;;23.40;45.77
37852;BME280;23691;52.486;4.650;2023-08-30T12:25:20;100529.94;;;23.45;44.98
37852;BME280;23691;52.486;4.650;2023-08-30T12:27:48;100529.72;;;23.47;44.93
37852;BME280;23691;52.486;4.650;2023-08-30T12:30:23;100522.28;;;23.42;45.16
37852;BME280;23691;52.486;4.650;2023-08-30T12:32:48;100525.63;;;23.22;45.61
37852;BME280;23691;52.486;4.650;2023-08-30T12:35:14;100547.38;;;22.95;47.10
37852;BME280;23691;52.486;4.650;2023-08-30T12:37:40;100549.63;;;22.59;48.66
37852;BME280;23691;52.486;4.650;2023-08-30T12:40:06;100559.50;;;22.43;50.12
37852;BME280;23691;52.486;4.650;2023-08-30T12:42:33;100553.09;;;22.33;51.32
37852;BME280;23691;52.486;4.650;2023-08-30T12:44:58;100555.97;;;22.26;52.34
37852;BME280;23691;52.486;4.650;2023-08-30T12:47:26;100562.41;;;22.20;52.82
37852;BME280;23691;52.486;4.650;2023-08-30T12:49:52;100558.59;;;22.38;52.76
37852;BME280;23691;52.486;4.650;2023-08-30T12:52:17;100568.00;;;22.47;53.01
37852;BME280;23691;52.486;4.650;2023-08-30T12:54:45;100561.41;;;22.43;52.94
37852;BME280;23691;52.486;4.650;2023-08-30T12:57:16;100564.53;;;22.35;53.01
37852;BME280;23691;52.486;4.650;2023-08-30T12:59:42;100577.03;;;22.31;52.99
37852;BME280;23691;52.486;4.650;2023-08-30T13:02:07;100573.97;;;22.27;52.61
37852;BME280;23691;52.486;4.650;2023-08-30T13:04:33;100578.97;;;22.18;52.98
37852;BME280;23691;52.486;4.650;2023-08-30T13:06:59;100583.69;;;22.06;53.58
37852;BME280;23691;52.486;4.650;2023-08-30T13:09:24;100577.72;;;21.92;54.02
37852;BME280;23691;52.486;4.650;2023-08-30T13:11:50;100582.09;;;21.76;54.47
37852;BME280;23691;52.486;4.650;2023-08-30T13:14:15;100588.31;;;21.60;54.35